This is the latest recevied weather packets stored in our database for station/object EA3CO-11. If no packets are shown the sender has not sent any weather packets the latest 10 day(s).
| Time | Temp. | Humidity | Pressure | Rain* | Wind** | Luminosity | Snow |
|---|---|---|---|---|---|---|---|
| 1777767703 | 16.11° C | 93% | 1021.1 hPa | - | - | - | - |
| 1777766803 | 16.67° C | 90% | 1021.2 hPa | - | - | - | - |
| 1777765903 | 16.11° C | 93% | 1021.4 hPa | - | - | - | - |
| 1777765003 | 16.11° C | 90% | 1021.5 hPa | - | - | - | - |
| 1777764102 | 16.11° C | 95% | 1021.5 hPa | - | - | - | - |
| 1777763202 | 16.11° C | 92% | 1021.5 hPa | - | - | - | - |
| 1777762302 | 16.11° C | 91% | 1021.5 hPa | - | - | - | - |
| 1777761402 | 16.67° C | 86% | 1021.6 hPa | - | - | - | - |
| 1777760502 | 16.67° C | 83% | 1021.9 hPa | - | - | - | - |
| 1777759602 | 17.22° C | 80% | 1021.9 hPa | - | - | - | - |
| 1777758702 | 17.22° C | 82% | 1022.2 hPa | - | - | - | - |
| 1777757802 | 17.22° C | 82% | 1022.2 hPa | - | - | - | - |
| 1777756902 | 17.22° C | 80% | 1022.3 hPa | - | - | - | - |
| 1777756002 | 17.78° C | 80% | 1022.2 hPa | - | - | - | - |
| 1777755101 | 17.22° C | 82% | 1022.4 hPa | - | - | - | - |
| 1777754201 | 16.67° C | 83% | 1022.3 hPa | - | - | - | - |
| 1777753301 | 17.22° C | 80% | 1021.9 hPa | - | - | - | - |
| 1777752401 | 17.22° C | 80% | 1021.9 hPa | - | - | - | - |
| 1777751507 | 17.22° C | 81% | 1021.8 hPa | - | - | - | - |
| 1777750606 | 17.78° C | 82% | 1021.8 hPa | - | - | - | - |
| 1777749672 | 17.22° C | 84% | 1021.9 hPa | - | - | - | - |
| 1777748772 | 17.78° C | 82% | 1021.9 hPa | - | - | - | - |
| 1777747872 | 17.22° C | 86% | 1021.9 hPa | - | - | - | - |
| 1777746972 | 17.78° C | 82% | 1021.8 hPa | - | - | - | - |
| 1777746072 | 16.67° C | 86% | 1021.9 hPa | - | - | - | - |
* Rain since midnight (hover to see other rain measurements)
** Current wind speed in m/s (hover to see current wind gust speed)